Rouyn Noranda Airport
CYUY : now visible

Airfield :











YOU CAN JOIN US ON...

 
LOGIN :

Register | Disclaimer

   EN    FR    IT 

 









Legend :    VFR   Marginal VFR   IFR   Intensive IFR   Very Intensive IFR
Visi :
Ceiling :
>= 8 km
>= 3000ft
5 to 8 km
1000 to 3000 ft
1500m to 5 km
500 to 1000 ft
800 to 1500m
200 to 500 ft
< 800m
< 200 ft
Symbols :   Thunderstorms  Fog  Heavy snow  Heavy precipitations  Wind > 20 kt






- Airport Elevation : 988 ft
- IATA code : YUY


CYUY - Rouyn Noranda

CURRENT METAR :
  • 211900Z 34008G15KT 300V020 15SM BKN034 BKN120 M02/M10 A2988 RMK SC6AC1 SLP141

EXPIRED METARs :
  • 211833Z 28007G15KT 250V350 15SM BKN030 M03/M10 A2989 RMK SC7 SLP142
  • 211800Z 34009G16KT 270V010 15SM -SHSN BKN028 M04/M11 A2989 RMK SC7 CVCTV CLD EMBD SLP146
  • 211744Z 35011KT 280V360 15SM -SHSN BKN028 M03/M10 A2989 RMK SC7 WSHFT 1736 CVCTV CLD EMBD SLP146
  • 211700Z 29010KT 270V350 8SM -SHSN OVC024 M05/M10 A2991 RMK SC8 CVCTV CLD EMBD SLP151

TAF TAF CYUY
Valid from the 21 at 18:00 until the 22 at 06:00 UTC


211740Z 2118/2206 29012KT P6SM BKN030
TEMPO 2118/2201 6SM -SHSN OVC020
FM220100 33006KT P6SM BKN030 OVC140 RMK NXT FCST BY 220000Z
CZUL FIR / North America



MET'MAP, your aeronautical weather chart ! - Copyright ORBIFLY December 2007 - Disclaimer

ORBIFLY MET'MAP TEAM :

Programming & Development : Alexandra Zaïnal
Concept & original design : Baudouin d'Aumeries
Assistance for programming : Marc-Olivier Méhu
Technical & hardware support : Manuel Goepfert

Contact : metmap@orbifly.com




SOURCES & CREDITS :

   NOAA       Earth
Advisory